createdAt,value
2018-12-23T00:01:19.142Z,80.59
2018-12-23T00:03:46.887Z,80.74
2018-12-23T00:06:14.680Z,80.76
2018-12-23T00:08:42.390Z,80.81
2018-12-23T00:11:10.106Z,80.36
2018-12-23T00:13:38.479Z,80.32
2018-12-23T00:16:06.231Z,80.47
2018-12-23T00:18:33.990Z,80.16
2018-12-23T00:21:01.734Z,80.00
2018-12-23T00:23:29.556Z,80.05
2018-12-23T00:25:57.259Z,80.28
2018-12-23T00:28:25.037Z,80.35
2018-12-23T00:30:52.837Z,80.37
2018-12-23T00:33:20.572Z,80.84
2018-12-23T00:35:48.272Z,80.61
2018-12-23T00:38:16.035Z,80.76
2018-12-23T00:40:43.764Z,80.19
2018-12-23T00:43:12.066Z,80.14
2018-12-23T00:45:39.850Z,80.14
2018-12-23T00:48:07.545Z,79.96
2018-12-23T00:50:35.283Z,80.17
2018-12-23T00:53:03.025Z,80.13
2018-12-23T00:55:30.760Z,80.29
2018-12-23T00:57:58.509Z,80.28
2018-12-23T01:00:26.245Z,80.14
2018-12-23T01:02:54.001Z,80.01
2018-12-23T01:05:28.739Z,80.23
2018-12-23T01:07:51.520Z,80.60
2018-12-23T01:10:19.260Z,80.24
2018-12-23T01:12:47.965Z,80.31
2018-12-23T01:15:15.721Z,80.30
2018-12-23T01:17:43.481Z,80.70
2018-12-23T01:20:11.217Z,80.27
2018-12-23T01:22:39.012Z,80.60
2018-12-23T01:25:08.755Z,80.41
2018-12-23T01:27:36.493Z,80.59
2018-12-23T01:30:04.690Z,80.30
2018-12-23T01:32:32.447Z,80.03
2018-12-23T01:35:00.310Z,80.20
2018-12-23T01:37:28.147Z,79.97
2018-12-23T01:39:55.875Z,79.68
2018-12-23T01:42:23.889Z,79.84
2018-12-23T01:44:51.831Z,80.05
2018-12-23T01:47:19.537Z,79.89
2018-12-23T01:49:47.280Z,80.08
2018-12-23T01:52:15.047Z,79.88
2018-12-23T01:54:43.359Z,79.59
2018-12-23T01:57:11.106Z,79.64
2018-12-23T01:59:38.821Z,79.87
2018-12-23T02:02:06.918Z,79.72
2018-12-23T02:04:35.458Z,79.71
2018-12-23T02:07:03.214Z,79.57
2018-12-23T02:09:37.473Z,79.99
2018-12-23T02:12:05.276Z,79.61
2018-12-23T02:14:38.214Z,79.79
2018-12-23T02:17:06.597Z,80.59
2018-12-23T02:19:34.328Z,80.21
2018-12-23T02:22:02.058Z,80.45
2018-12-23T02:24:29.801Z,80.23
2018-12-23T02:26:57.540Z,80.52
2018-12-23T02:29:25.303Z,80.74
2018-12-23T02:31:57.613Z,80.33
2018-12-23T02:34:25.290Z,80.17
2018-12-23T02:36:53.033Z,80.20
2018-12-23T02:39:20.841Z,79.94
2018-12-23T02:41:48.560Z,80.22
2018-12-23T02:44:16.317Z,80.42
2018-12-23T02:46:44.044Z,80.46
2018-12-23T02:49:11.791Z,80.05
2018-12-23T02:51:39.672Z,80.04
2018-12-23T02:54:07.459Z,80.24
2018-12-23T02:56:35.177Z,79.98
2018-12-23T02:59:02.891Z,80.19
2018-12-23T03:01:30.582Z,80.36
2018-12-23T03:03:58.362Z,80.73
2018-12-23T03:06:26.094Z,80.66
2018-12-23T03:08:53.895Z,80.74
2018-12-23T03:11:21.605Z,80.59
2018-12-23T03:13:49.317Z,80.43
2018-12-23T03:16:17.099Z,80.77
2018-12-23T03:18:44.921Z,80.57
2018-12-23T03:21:12.609Z,80.54
2018-12-23T03:23:40.315Z,80.44
2018-12-23T03:26:08.049Z,80.33
2018-12-23T03:28:35.750Z,80.10
2018-12-23T03:31:03.480Z,79.94
2018-12-23T03:33:31.204Z,79.88
2018-12-23T03:35:58.957Z,79.49
2018-12-23T03:38:27.613Z,79.40
2018-12-23T03:40:55.327Z,79.08
2018-12-23T03:43:23.106Z,79.28
2018-12-23T03:45:50.888Z,79.39
2018-12-23T03:48:18.600Z,78.90
2018-12-23T03:50:46.298Z,79.23
2018-12-23T03:53:14.046Z,79.37
2018-12-23T03:55:41.793Z,79.31
2018-12-23T03:58:09.493Z,79.23
2018-12-23T04:00:38.091Z,79.93
2018-12-23T04:03:05.809Z,79.54
2018-12-23T04:05:33.627Z,79.53
2018-12-23T04:08:01.363Z,79.74
2018-12-23T04:10:30.560Z,79.59
2018-12-23T04:12:58.332Z,79.56
2018-12-23T04:15:27.163Z,79.86
2018-12-23T04:17:54.947Z,79.48
2018-12-23T04:20:22.652Z,79.83
2018-12-23T04:22:51.978Z,80.09
2018-12-23T04:25:19.689Z,80.23
2018-12-23T04:27:49.252Z,80.03
2018-12-23T04:30:16.997Z,80.16
2018-12-23T04:32:44.809Z,80.16
2018-12-23T04:35:12.695Z,80.25
2018-12-23T04:37:40.433Z,80.28
2018-12-23T04:40:08.616Z,80.49
2018-12-23T04:42:36.383Z,80.50
2018-12-23T04:45:04.316Z,80.44
2018-12-23T04:47:32.034Z,80.66
2018-12-23T04:49:59.776Z,80.21
2018-12-23T04:52:27.497Z,80.46
2018-12-23T04:54:55.217Z,80.71
2018-12-23T04:57:23.029Z,80.88
2018-12-23T04:59:50.763Z,80.73
2018-12-23T05:02:18.482Z,80.56
2018-12-23T05:04:46.241Z,80.57
2018-12-23T05:07:14.054Z,80.18
2018-12-23T05:09:41.783Z,80.11
2018-12-23T05:12:09.514Z,80.50
2018-12-23T05:14:37.251Z,80.71
2018-12-23T05:17:04.916Z,80.74
2018-12-23T05:19:32.653Z,80.52
2018-12-23T05:22:00.377Z,80.22
2018-12-23T05:24:28.097Z,80.30
2018-12-23T05:26:55.829Z,80.43
2018-12-23T05:29:23.571Z,80.55
2018-12-23T05:31:51.326Z,80.85
2018-12-23T05:34:19.059Z,80.91
2018-12-23T05:36:52.330Z,80.60
2018-12-23T05:39:17.024Z,80.94
2018-12-23T05:41:44.741Z,80.70
2018-12-23T05:44:12.554Z,80.84
2018-12-23T05:46:40.312Z,80.70
2018-12-23T05:49:08.064Z,80.14
2018-12-23T05:51:35.793Z,80.20
2018-12-23T05:54:03.625Z,80.56
2018-12-23T05:56:31.322Z,79.89
2018-12-23T05:58:59.052Z,80.21
2018-12-23T06:01:26.751Z,80.38
2018-12-23T06:03:54.454Z,80.46
2018-12-23T06:06:22.185Z,80.43
2018-12-23T06:08:49.962Z,80.23
2018-12-23T06:11:17.915Z,80.35
2018-12-23T06:13:45.646Z,80.28
2018-12-23T06:16:13.372Z,80.47
2018-12-23T06:18:41.129Z,80.20
2018-12-23T06:21:08.813Z,80.60
2018-12-23T06:23:36.521Z,80.53
2018-12-23T06:26:04.304Z,80.68
2018-12-23T06:28:32.066Z,80.89
2018-12-23T06:30:59.810Z,81.02
2018-12-23T06:33:27.572Z,80.98
2018-12-23T06:35:55.341Z,80.27
2018-12-23T06:38:23.080Z,80.14
2018-12-23T06:40:50.802Z,80.23
2018-12-23T07:45:08.688Z,80.93
2018-12-23T07:47:36.370Z,81.06
2018-12-23T07:50:04.333Z,81.05
2018-12-23T07:52:32.015Z,80.69
2018-12-23T07:55:00.003Z,81.14
2018-12-23T07:57:27.729Z,80.82
2018-12-23T07:59:55.407Z,80.66
2018-12-23T08:02:23.125Z,80.51
2018-12-23T08:04:50.927Z,80.98
2018-12-23T08:07:18.640Z,81.19
2018-12-23T08:09:46.341Z,81.33
2018-12-23T08:12:14.064Z,81.20
2018-12-23T08:14:41.730Z,81.00
2018-12-23T08:17:09.452Z,81.33
2018-12-23T08:19:37.122Z,81.33
2018-12-23T08:22:04.811Z,81.47
2018-12-23T08:24:32.519Z,81.29
2018-12-23T08:27:00.187Z,80.85
2018-12-23T08:29:28.201Z,80.73
2018-12-23T08:31:55.924Z,80.82
2018-12-23T08:34:23.630Z,81.07
2018-12-23T08:36:53.775Z,81.31
2018-12-23T08:39:21.456Z,81.45
2018-12-23T08:41:49.202Z,81.22
2018-12-23T08:44:16.959Z,81.28
2018-12-23T08:46:44.629Z,81.23
2018-12-23T08:49:15.322Z,81.59
2018-12-23T08:51:43.595Z,81.74
2018-12-23T08:54:11.548Z,81.50
2018-12-23T08:56:39.275Z,81.83
2018-12-23T08:59:07.000Z,81.94
2018-12-23T09:01:35.145Z,81.67
2018-12-23T09:04:02.816Z,81.57
2018-12-23T09:06:30.517Z,81.93
2018-12-23T09:08:58.191Z,81.77
2018-12-23T09:11:25.893Z,81.31
2018-12-23T09:13:53.557Z,81.34
2018-12-23T09:16:21.377Z,81.39
2018-12-23T09:18:49.054Z,81.63
2018-12-23T09:21:16.942Z,81.71
2018-12-23T09:23:44.645Z,81.52
2018-12-23T09:26:12.370Z,81.56
2018-12-23T09:28:40.051Z,81.63
2018-12-23T09:31:07.895Z,81.53
2018-12-23T09:33:35.612Z,81.68
2018-12-23T09:36:03.289Z,81.45
2018-12-23T09:38:31.023Z,81.50
2018-12-23T09:40:58.688Z,81.63
2018-12-23T09:43:26.402Z,81.55
2018-12-23T09:45:54.114Z,81.80
2018-12-23T09:48:21.794Z,81.85
2018-12-23T09:50:49.515Z,81.64
2018-12-23T09:53:17.219Z,81.68
2018-12-23T09:55:44.897Z,81.81
2018-12-23T09:58:12.615Z,81.96
2018-12-23T10:00:40.362Z,81.32
2018-12-23T10:03:08.051Z,81.59
2018-12-23T10:05:35.790Z,81.97
2018-12-23T10:08:09.935Z,81.95
2018-12-23T10:10:33.117Z,81.76
2018-12-23T10:13:00.824Z,81.98
2018-12-23T10:15:28.527Z,81.71
2018-12-23T10:17:56.223Z,81.75
2018-12-23T10:20:23.920Z,82.00
2018-12-23T10:22:51.641Z,82.20
2018-12-23T10:25:19.360Z,82.09
2018-12-23T10:27:47.034Z,82.01
2018-12-23T10:30:14.708Z,81.96
2018-12-23T10:32:42.415Z,81.97
2018-12-23T10:35:10.085Z,82.00
2018-12-23T10:37:37.775Z,81.81
2018-12-23T10:40:05.719Z,82.17
2018-12-23T10:42:33.436Z,82.17
2018-12-23T10:45:01.137Z,82.11
2018-12-23T10:47:28.811Z,82.24
2018-12-23T10:49:56.552Z,82.50
2018-12-23T10:52:24.424Z,82.53
2018-12-23T10:54:52.109Z,82.63
2018-12-23T10:57:19.858Z,82.21
2018-12-23T10:59:47.560Z,82.65
2018-12-23T11:02:15.240Z,82.47
2018-12-23T11:04:42.985Z,82.32
2018-12-23T11:07:10.702Z,82.35
2018-12-23T11:09:38.380Z,82.10
2018-12-23T11:12:06.124Z,82.03
2018-12-23T11:14:33.808Z,81.88
2018-12-23T11:17:01.499Z,81.64
2018-12-23T11:19:29.214Z,81.62
2018-12-23T11:21:56.912Z,81.42
2018-12-23T11:24:24.598Z,81.08
2018-12-23T11:26:53.879Z,80.93
2018-12-23T11:29:21.690Z,81.11
2018-12-23T11:31:49.351Z,81.07
2018-12-23T11:34:17.058Z,80.86
2018-12-23T11:36:44.751Z,80.73
2018-12-23T11:39:12.514Z,80.88
2018-12-23T11:41:40.278Z,80.68
2018-12-23T11:44:08.014Z,80.50
2018-12-23T11:46:35.719Z,80.46
2018-12-23T11:49:03.372Z,80.56
2018-12-23T11:51:31.052Z,80.61
2018-12-23T11:53:58.764Z,80.33
2018-12-23T11:56:26.485Z,80.21
2018-12-23T11:58:54.199Z,80.28
2018-12-23T12:01:21.878Z,80.09
2018-12-23T12:03:49.605Z,79.80
2018-12-23T12:06:17.619Z,79.75
2018-12-23T12:08:45.342Z,79.83
2018-12-23T12:11:13.102Z,79.82
2018-12-23T12:13:40.801Z,79.79
2018-12-23T12:16:08.514Z,79.71
2018-12-23T12:18:36.265Z,79.95
2018-12-23T12:21:03.990Z,79.63
2018-12-23T12:23:31.658Z,79.70
2018-12-23T12:25:59.325Z,79.71
2018-12-23T12:28:27.020Z,79.46
2018-12-23T12:30:55.004Z,79.39
2018-12-23T12:33:22.655Z,79.63
2018-12-23T12:35:50.709Z,79.50
2018-12-23T12:38:19.329Z,79.21
2018-12-23T12:40:47.445Z,79.42
2018-12-23T12:43:15.311Z,79.54
2018-12-23T12:45:43.523Z,79.80
2018-12-23T12:48:11.254Z,80.18
2018-12-23T12:50:38.967Z,79.60
2018-12-23T12:53:06.665Z,79.33
2018-12-23T12:55:34.324Z,79.54
2018-12-23T12:58:02.021Z,79.61
2018-12-23T13:00:29.757Z,79.45
2018-12-23T13:02:57.543Z,79.35
2018-12-23T13:05:25.262Z,79.76
2018-12-23T13:07:52.992Z,79.41
2018-12-23T13:10:21.267Z,79.41
2018-12-23T13:12:52.050Z,79.66
2018-12-23T13:15:19.737Z,79.64
2018-12-23T13:17:47.438Z,80.10
2018-12-23T13:20:15.173Z,79.37
2018-12-23T13:22:42.923Z,79.51
2018-12-23T13:25:10.601Z,79.56
2018-12-23T13:27:38.373Z,79.69
2018-12-23T13:30:07.840Z,79.61
2018-12-23T13:32:35.952Z,79.60
2018-12-23T13:35:03.922Z,79.79
2018-12-23T13:37:31.628Z,79.40
2018-12-23T13:40:07.451Z,79.62
2018-12-23T13:43:07.468Z,79.56
2018-12-23T13:46:09.601Z,79.10
2018-12-23T13:49:00.767Z,78.86
2018-12-23T13:51:50.025Z,79.00
2018-12-23T13:54:44.535Z,79.20
2018-12-23T13:57:44.350Z,78.66
2018-12-23T14:01:14.956Z,78.54
2018-12-23T14:04:14.951Z,78.49
2018-12-23T14:07:18.121Z,78.22
2018-12-23T14:10:32.209Z,78.20
2018-12-23T14:13:00.285Z,77.98
2018-12-23T14:15:28.367Z,78.48
2018-12-23T14:17:56.053Z,78.26
2018-12-23T14:20:23.792Z,78.07
2018-12-23T14:22:51.490Z,77.82
2018-12-23T14:25:19.232Z,77.80
2018-12-23T14:27:47.124Z,77.65
2018-12-23T14:30:14.795Z,77.56
2018-12-23T14:32:42.451Z,77.56
2018-12-23T14:35:10.206Z,77.80
2018-12-23T14:37:37.887Z,77.65
2018-12-23T14:40:05.710Z,77.78
2018-12-23T14:42:33.455Z,77.63
2018-12-23T14:45:01.134Z,77.42
2018-12-23T14:47:28.840Z,77.45
2018-12-23T14:49:56.551Z,77.41
2018-12-23T14:52:24.225Z,77.34
2018-12-23T14:54:51.993Z,77.25
2018-12-23T14:57:19.710Z,77.14
2018-12-23T14:59:47.709Z,77.16
2018-12-23T15:02:15.382Z,77.04
2018-12-23T15:04:43.092Z,76.99
2018-12-23T15:07:10.812Z,76.94
2018-12-23T15:09:38.512Z,76.89
2018-12-23T15:12:06.410Z,76.81
2018-12-23T15:14:34.284Z,76.77
2018-12-23T15:17:02.150Z,76.69
2018-12-23T15:19:30.388Z,76.62
2018-12-23T15:21:58.067Z,76.59
2018-12-23T15:24:25.873Z,76.51
2018-12-23T15:26:53.643Z,76.45
2018-12-23T15:29:21.338Z,76.43
2018-12-23T15:31:49.036Z,76.43
2018-12-23T15:34:16.799Z,76.37
2018-12-23T15:36:44.482Z,76.38
2018-12-23T15:39:12.150Z,76.33
2018-12-23T15:41:39.863Z,76.34
2018-12-23T15:44:07.523Z,76.34
2018-12-23T15:46:35.229Z,76.32
2018-12-23T15:49:03.218Z,76.37
2018-12-23T15:51:30.908Z,76.30
2018-12-23T15:53:58.768Z,76.32
2018-12-23T15:56:26.465Z,76.25
2018-12-23T15:58:54.131Z,76.39
2018-12-23T16:01:21.814Z,77.82
2018-12-23T16:03:49.465Z,77.11
2018-12-23T16:06:17.130Z,76.83
2018-12-23T16:08:44.928Z,76.67
2018-12-23T16:11:12.705Z,76.62
2018-12-23T16:13:40.530Z,76.57
2018-12-23T16:16:08.199Z,76.57
2018-12-23T16:18:36.240Z,76.84
2018-12-23T16:21:03.920Z,76.73
2018-12-23T16:23:31.594Z,76.70
2018-12-23T16:25:59.247Z,76.72
2018-12-23T16:28:26.963Z,76.97
2018-12-23T16:30:54.653Z,76.85
2018-12-23T16:33:22.380Z,77.10
2018-12-23T16:35:50.136Z,77.26
2018-12-23T16:38:17.831Z,77.17
2018-12-23T16:40:45.569Z,77.15
2018-12-23T16:43:13.339Z,77.12
2018-12-23T16:45:41.001Z,77.37
2018-12-23T16:48:08.720Z,77.34
2018-12-23T16:50:36.515Z,77.35
2018-12-23T16:53:04.215Z,77.34
2018-12-23T16:55:31.917Z,77.37
2018-12-23T16:58:01.350Z,77.57
2018-12-23T17:00:29.172Z,77.79
2018-12-23T17:02:56.831Z,77.84
2018-12-23T17:05:24.593Z,78.02
2018-12-23T17:07:52.331Z,78.00
2018-12-23T17:10:20.091Z,77.92
2018-12-23T17:12:47.765Z,77.84
2018-12-23T17:15:15.443Z,77.75
2018-12-23T17:17:43.117Z,78.01
2018-12-23T17:20:12.644Z,78.16
2018-12-23T17:22:40.378Z,77.86
2018-12-23T17:25:08.273Z,77.79
2018-12-23T17:27:35.958Z,77.98
2018-12-23T17:30:04.439Z,77.85
2018-12-23T17:32:33.032Z,77.71
2018-12-23T17:35:00.773Z,77.64
2018-12-23T17:37:29.015Z,77.69
2018-12-23T17:39:56.951Z,77.73
2018-12-23T17:42:24.661Z,77.60
2018-12-23T17:44:52.482Z,77.42
2018-12-23T17:47:21.880Z,77.47
2018-12-23T17:49:49.665Z,77.43
2018-12-23T17:52:23.181Z,77.63
2018-12-23T17:54:46.950Z,77.64
2018-12-23T17:57:14.797Z,77.91
2018-12-23T17:59:42.832Z,77.82
2018-12-23T18:02:11.191Z,77.95
2018-12-23T18:04:38.916Z,77.70
2018-12-23T18:07:06.620Z,77.64
2018-12-23T18:09:34.283Z,77.53
2018-12-23T18:12:02.044Z,77.48
2018-12-23T18:14:29.802Z,77.68
2018-12-23T18:16:57.484Z,77.63
2018-12-23T18:19:25.152Z,77.53
2018-12-23T18:21:52.804Z,77.45
2018-12-23T18:24:20.517Z,77.78
2018-12-23T18:26:48.227Z,77.99
2018-12-23T18:29:15.876Z,77.91
2018-12-23T18:31:43.605Z,77.94
2018-12-23T18:34:11.264Z,78.39
2018-12-23T18:36:39.047Z,78.52
2018-12-23T18:39:07.042Z,78.14
2018-12-23T18:41:34.736Z,78.14
2018-12-23T18:44:02.427Z,78.16
2018-12-23T18:46:30.189Z,78.47
2018-12-23T18:48:57.908Z,78.63
2018-12-23T18:51:25.626Z,78.51
2018-12-23T18:53:53.330Z,78.53
2018-12-23T18:56:32.275Z,78.55
2018-12-23T18:59:00.019Z,78.67
2018-12-23T19:01:28.759Z,78.43
2018-12-23T19:03:56.573Z,78.48
2018-12-23T19:06:24.289Z,79.15
2018-12-23T19:09:22.887Z,78.77
2018-12-23T19:12:30.783Z,78.68
2018-12-23T19:15:52.015Z,78.81
2018-12-23T19:19:00.591Z,78.94
2018-12-23T19:22:17.698Z,79.24
2018-12-23T19:25:17.298Z,79.32
2018-12-23T19:28:24.192Z,79.75
2018-12-23T19:31:41.364Z,80.25
2018-12-23T19:34:52.376Z,80.24
2018-12-23T19:38:18.136Z,80.43
2018-12-23T19:41:21.888Z,80.09
2018-12-23T19:44:21.449Z,79.73
2018-12-23T19:47:08.510Z,79.95
2018-12-23T19:50:20.615Z,80.08
2018-12-23T19:53:32.738Z,80.28
2018-12-23T19:56:14.270Z,80.25
2018-12-23T19:59:18.689Z,80.01
2018-12-23T20:02:22.581Z,79.95
2018-12-23T20:05:43.848Z,80.38
2018-12-23T20:08:54.330Z,80.72
2018-12-23T20:12:05.584Z,80.44
2018-12-23T20:15:05.482Z,81.00
2018-12-23T20:18:12.591Z,81.21
2018-12-23T20:21:20.371Z,81.23
2018-12-23T20:24:40.727Z,81.27
2018-12-23T20:27:48.376Z,81.01
2018-12-23T20:30:53.216Z,81.24
2018-12-23T20:34:07.033Z,81.41
2018-12-23T20:37:06.521Z,81.10
2018-12-23T20:40:25.036Z,80.95
2018-12-23T20:43:29.326Z,80.67
2018-12-23T20:46:29.040Z,80.99
2018-12-23T20:50:02.864Z,80.59
2018-12-23T20:53:18.255Z,80.90
2018-12-23T20:56:41.614Z,80.33
2018-12-23T20:59:55.242Z,80.88
2018-12-23T21:03:16.562Z,80.80
2018-12-23T21:06:19.867Z,80.53
2018-12-23T21:09:35.758Z,80.45
2018-12-23T21:12:50.750Z,80.28
2018-12-23T21:16:11.419Z,80.29
2018-12-23T21:19:16.559Z,80.45
2018-12-23T21:22:10.662Z,80.87
2018-12-23T21:25:19.875Z,80.61
2018-12-23T21:28:34.248Z,81.11
2018-12-23T21:31:55.602Z,81.20
2018-12-23T21:35:09.209Z,81.12
2018-12-23T21:37:59.356Z,80.71
2018-12-23T21:41:03.091Z,79.77
2018-12-23T21:44:30.677Z,78.73
2018-12-23T21:47:29.317Z,77.45
2018-12-23T21:50:34.665Z,75.80
2018-12-23T21:53:46.536Z,75.37
2018-12-23T21:57:03.596Z,76.29
2018-12-23T22:00:04.135Z,77.53
2018-12-23T22:03:06.368Z,77.45
2018-12-23T22:06:14.653Z,77.76
2018-12-23T22:08:58.070Z,77.34
2018-12-23T22:11:52.320Z,77.30
2018-12-23T22:14:20.027Z,77.22
2018-12-23T22:16:47.735Z,76.71
2018-12-23T22:19:15.399Z,76.17
2018-12-23T22:21:43.047Z,75.95
2018-12-23T22:24:10.818Z,75.67
2018-12-23T22:26:38.502Z,75.58
2018-12-23T22:29:06.190Z,75.42
2018-12-23T22:31:33.919Z,74.82
2018-12-23T22:34:01.614Z,75.07
2018-12-23T22:36:29.301Z,75.36
2018-12-23T22:38:56.996Z,75.54
2018-12-23T22:41:27.782Z,76.07
2018-12-23T22:43:55.499Z,76.15
2018-12-23T22:46:23.149Z,76.23
2018-12-23T22:48:50.871Z,76.40
2018-12-23T22:51:18.627Z,76.86
2018-12-23T22:53:47.213Z,76.85
2018-12-23T22:56:15.014Z,77.29
2018-12-23T22:58:42.714Z,77.38
2018-12-23T23:01:10.398Z,77.30
2018-12-23T23:03:38.069Z,77.30
2018-12-23T23:06:05.799Z,77.33
2018-12-23T23:08:33.491Z,77.25
2018-12-23T23:11:01.156Z,76.56
2018-12-23T23:13:28.847Z,76.82
2018-12-23T23:15:59.236Z,75.91
2018-12-23T23:18:26.905Z,75.98
2018-12-23T23:20:54.599Z,75.29
2018-12-23T23:23:22.571Z,75.22
2018-12-23T23:25:50.255Z,74.68
2018-12-23T23:28:17.911Z,74.63
2018-12-23T23:30:45.572Z,74.21
2018-12-23T23:33:13.293Z,74.47
2018-12-23T23:35:42.010Z,74.50
2018-12-23T23:38:09.704Z,74.40
2018-12-23T23:40:37.400Z,74.09
2018-12-23T23:43:05.115Z,74.26
2018-12-23T23:45:32.821Z,73.95
2018-12-23T23:48:00.493Z,74.06
2018-12-23T23:50:28.194Z,73.96
2018-12-23T23:52:55.917Z,74.34
2018-12-23T23:55:23.613Z,75.08
2018-12-23T23:57:51.281Z,75.46
